Aviation Digital Data Service (ADDS)

Output produced by METARs form (2020 UTC 14 December 2018)
found at http://www.aviationweather.gov/metar/data/
 
EDDR 141950Z 04005KT 9999 OVC029 M01/M06 Q1022 NOSIG
TAF EDDR 141700Z 1418/1518 07006KT 9999 OVC025
       
ETAR 141956Z 04004KT 9999 OVC030 00/M05 A3022 RMK AO2A SLP251 T1005 $
TAF ETAR 141800Z 1418/1524 06009KT 9999 BKN020 620203 QNH3011INS 
     TEMPO 1514/1516 BKN015 
     BECMG 1518/1519 12008KT 9999 SCT100 QNH2997INS TX01/1512Z TNM02/1507Z